• Join FlightAware (Why Join?)
  • Login
  • US Flag 
02:11AM EST


 

Airport Tracker/Info


-or-


 

Live Flight TrackerFlight Track Log ✈ UAL3272 ✈ 15-Apr-2013 ✈ CYYZ - KCLE

Flight Track Log - Related Links

Times and Time Zones

All times are in EDT time to prevent confusion due to time zone crossing. See the UAL3272 flight status page for this flight to view local times or setup timezone preferences in your user account.

Time Position Orientation Groundspeed Altitude Reporting Facility
EDT Latitude Longitude Course Direction KTS MPH feet Rate Location/Type
06:28AM 43.6833 -79.5667 47° Northeast 160 184 2,300  Level Toronto Center
06:29AM 43.7167 -79.5167 47° Northeast 220 253 4,400 2,100 Climbing Toronto Center
06:30AM 43.6833 -79.4500 125° Southeast 240 276 6,600 2,400 Climbing Toronto Center
06:31AM 43.6333 -79.5000 216° Southwest 240 276 9,300 2,040 Climbing Toronto Center
06:32AM 43.5500 -79.5333 196° South 300 345 10,700 1,500 Climbing Toronto Center
06:33AM 43.4667 -79.5833 204° Southwest 330 380 12,400 1,620 Climbing Toronto Center
06:34AM 43.3833 -79.6333 204° Southwest 340 391 14,000 1,680 Climbing Toronto Center
06:35AM 43.2833 -79.6833 200° South 350 403 15,800 1,740 Climbing Toronto Center
06:36AM 43.1833 -79.7000 187° South 360 414 17,500 1,380 Climbing Toronto Center
06:37AM 43.0833 -79.7167 187° South 370 426 18,600 1,380 Climbing Toronto Center
06:38AM 42.9833 -79.7500 194° South 380 437 20,300 1,560 Climbing Toronto Center
06:39AM 42.8833 -79.8000 200° South 380 437 21,800 840 Climbing Toronto Center
06:40AM 42.7833 -79.8333 194° South 390 449 22,000 60 Climbing Toronto Center
06:41AM 42.6833 -79.9000 206° Southwest 390 449 22,000  Level Toronto Center
06:42AM 42.5833 -79.9500 200° South 380 437 22,000  Level Toronto Center
06:43AM 42.4964 -80.0311 215° Southwest 402 463 22,000  Level Cleveland Center
06:44AM 42.3967 -80.0856 202° Southwest 402 463 22,000  Level Cleveland Center
06:45AM 42.3114 -80.1761 218° Southwest 390 449 22,000  Level Cleveland Center
06:46AM 42.2325 -80.2775 224° Southwest 390 449 22,000  Level Cleveland Center
06:47AM 42.1558 -80.3758 224° Southwest 390 449 22,000  Level Cleveland Center
06:48AM 42.0725 -80.4742 221° Southwest 395 455 22,000 -660 Level Cleveland Center
06:49AM 41.9953 -80.5747 224° Southwest 395 455 20,700 -1,500 Descending Cleveland Center
06:50AM 41.9244 -80.6614 222° Southwest 390 449 19,100 -1,860 Descending Cleveland Center
06:51AM 41.8472 -80.7558 222° Southwest 390 449 17,100 -2,040 Descending Cleveland Center
06:52AM 41.7742 -80.8478 223° Southwest 374 430 15,100 -2,100 Descending Cleveland Center
06:53AM 41.7219 -80.9142 224° Southwest 347 399 13,600 -2,040 Descending Cleveland Center
06:53AM 41.7031 -80.9364 221° Southwest 366 421 13,100 -2,040 Descending Cleveland Center
06:54AM 41.6653 -81.0028 233° Southwest 335 386 11,800 -1,980 Descending Cleveland Center
06:54AM 41.6672 -81.0417 274° West 327 376 11,100 -1,680 Descending Cleveland Center
06:55AM 41.6731 -81.1392 275° West 291 335 9,800 -1,440 Descending Cleveland Center
06:56AM 41.6786 -81.2447 274° West 279 321 8,500 -1,260 Descending Cleveland Center
06:57AM 41.6592 -81.3531 257° West 263 303 7,200 -1,080 Descending Cleveland Center
06:58AM 41.6419 -81.4500 257° West 270 311 6,300 -960 Descending Cleveland Center
06:59AM 41.6142 -81.5331 246° West 253 291 5,300 -720 Descending Cleveland Center
07:00AM 41.5697 -81.6044 230° Southwest 248 285 4,900 -540 Descending Cleveland Center
07:01AM 41.5253 -81.6731 229° Southwest 248 285 4,200 -900 Descending Cleveland Center
07:02AM 41.4914 -81.7253 229° Southwest 182 209 3,200 -960 Descending Cleveland Center
07:03AM 41.4597 -81.7772 231° Southwest 129 148 2,300 -720 Descending Cleveland Center
07:04AM 41.4428 -81.8047 231° Southwest 86 99 1,700 -540 Descending Cleveland Center
07:05AM 41.4300 -81.8239 228° Southwest 99 114 1,400 -480 Descending Cleveland Center
07:07AM 41.4000 -81.8500 252° West  Level FlightAware Approximate
07:14AM 41.4094 -81.8547 252° West  Level Estimated